sensor_id;sensor_type;location;lat;lon;timestamp;pressure;altitude;pressure_sealevel;temperature;humidity
66801;BME280;53703;50.326;19.122;2023-05-07T00:01:57;98848.14;;;19.47;46.74
66801;BME280;53703;50.326;19.122;2023-05-07T00:04:54;98845.80;;;19.58;46.37
66801;BME280;53703;50.326;19.122;2023-05-07T00:07:49;98855.48;;;19.44;46.49
66801;BME280;53703;50.326;19.122;2023-05-07T00:10:49;98853.89;;;19.46;46.63
66801;BME280;53703;50.326;19.122;2023-05-07T00:13:43;98857.67;;;19.55;46.29
66801;BME280;53703;50.326;19.122;2023-05-07T00:16:37;98857.95;;;19.33;46.53
66801;BME280;53703;50.326;19.122;2023-05-07T00:19:31;98860.73;;;19.42;46.37
66801;BME280;53703;50.326;19.122;2023-05-07T00:22:25;98864.63;;;19.46;46.30
66801;BME280;53703;50.326;19.122;2023-05-07T00:25:19;98864.12;;;19.66;45.97
66801;BME280;53703;50.326;19.122;2023-05-07T00:28:13;98868.75;;;19.77;45.94
66801;BME280;53703;50.326;19.122;2023-05-07T00:31:08;98868.25;;;19.69;45.80
66801;BME280;53703;50.326;19.122;2023-05-07T00:34:02;98863.21;;;19.58;45.79
66801;BME280;53703;50.326;19.122;2023-05-07T00:36:56;98865.94;;;19.56;46.04
66801;BME280;53703;50.326;19.122;2023-05-07T00:39:51;98867.32;;;19.70;45.88
66801;BME280;53703;50.326;19.122;2023-05-07T00:42:45;98872.44;;;19.54;45.78
66801;BME280;53703;50.326;19.122;2023-05-07T00:45:39;98875.61;;;19.57;45.72
66801;BME280;53703;50.326;19.122;2023-05-07T00:48:34;98874.52;;;19.66;45.56
66801;BME280;53703;50.326;19.122;2023-05-07T00:51:28;98876.11;;;19.74;45.63
66801;BME280;53703;50.326;19.122;2023-05-07T00:54:23;98878.41;;;19.55;45.58
66801;BME280;53703;50.326;19.122;2023-05-07T00:57:16;98877.36;;;19.52;45.61
66801;BME280;53703;50.326;19.122;2023-05-07T01:00:12;98875.42;;;19.07;46.71
66801;BME280;53703;50.326;19.122;2023-05-07T01:03:07;98872.31;;;19.61;45.61
66801;BME280;53703;50.326;19.122;2023-05-07T01:06:03;98869.80;;;19.56;45.65
66801;BME280;53703;50.326;19.122;2023-05-07T01:08:58;98876.27;;;19.55;45.61
66801;BME280;53703;50.326;19.122;2023-05-07T01:11:53;98882.70;;;19.56;45.44
66801;BME280;53703;50.326;19.122;2023-05-07T01:14:49;98880.09;;;19.58;45.17
66801;BME280;53703;50.326;19.122;2023-05-07T01:17:44;98883.50;;;19.56;45.27
66801;BME280;53703;50.326;19.122;2023-05-07T01:20:39;98882.73;;;19.55;45.16
66801;BME280;53703;50.326;19.122;2023-05-07T01:23:34;98881.83;;;19.50;45.28
66801;BME280;53703;50.326;19.122;2023-05-07T01:26:29;98886.96;;;19.50;45.39
66801;BME280;53703;50.326;19.122;2023-05-07T01:29:23;98883.00;;;19.55;45.14
66801;BME280;53703;50.326;19.122;2023-05-07T01:32:21;98881.65;;;19.61;45.09
66801;BME280;53703;50.326;19.122;2023-05-07T01:35:21;98886.27;;;19.62;44.95
66801;BME280;53703;50.326;19.122;2023-05-07T01:38:16;98886.20;;;19.62;44.86
66801;BME280;53703;50.326;19.122;2023-05-07T01:41:11;98885.72;;;19.57;45.05
66801;BME280;53703;50.326;19.122;2023-05-07T01:44:06;98890.74;;;19.58;45.13
66801;BME280;53703;50.326;19.122;2023-05-07T01:47:02;98887.18;;;19.67;44.90
66801;BME280;53703;50.326;19.122;2023-05-07T01:49:56;98885.89;;;19.63;44.84
66801;BME280;53703;50.326;19.122;2023-05-07T01:52:52;98886.61;;;19.58;44.85
66801;BME280;53703;50.326;19.122;2023-05-07T01:55:46;98889.65;;;19.68;44.85
66801;BME280;53703;50.326;19.122;2023-05-07T01:58:40;98887.95;;;19.61;44.70
66801;BME280;53703;50.326;19.122;2023-05-07T02:01:34;98886.67;;;19.36;45.02
66801;BME280;53703;50.326;19.122;2023-05-07T02:04:15;98889.83;;;19.45;44.82
66801;BME280;53703;50.326;19.122;2023-05-07T02:07:09;98886.27;;;19.56;44.87
66801;BME280;53703;50.326;19.122;2023-05-07T02:10:04;98884.22;;;19.63;44.65
66801;BME280;53703;50.326;19.122;2023-05-07T02:12:58;98883.79;;;19.52;44.84
66801;BME280;53703;50.326;19.122;2023-05-07T02:15:54;98881.23;;;19.51;44.87
66801;BME280;53703;50.326;19.122;2023-05-07T02:18:49;98884.30;;;19.48;44.82
66801;BME280;53703;50.326;19.122;2023-05-07T02:21:43;98884.21;;;19.41;44.78
66801;BME280;53703;50.326;19.122;2023-05-07T02:24:37;98884.36;;;19.38;44.84
66801;BME280;53703;50.326;19.122;2023-05-07T02:27:31;98888.29;;;19.34;44.72
66801;BME280;53703;50.326;19.122;2023-05-07T02:30:25;98886.04;;;19.30;44.80
66801;BME280;53703;50.326;19.122;2023-05-07T02:33:20;98889.23;;;19.26;44.93
66801;BME280;53703;50.326;19.122;2023-05-07T02:36:14;98891.28;;;19.25;44.77
66801;BME280;53703;50.326;19.122;2023-05-07T02:39:08;98892.38;;;19.28;44.45
66801;BME280;53703;50.326;19.122;2023-05-07T02:42:02;98895.53;;;19.19;44.52
66801;BME280;53703;50.326;19.122;2023-05-07T02:44:57;98897.48;;;19.21;44.48
66801;BME280;53703;50.326;19.122;2023-05-07T02:47:51;98893.99;;;19.23;44.45
66801;BME280;53703;50.326;19.122;2023-05-07T02:50:45;98898.33;;;19.20;44.36
66801;BME280;53703;50.326;19.122;2023-05-07T02:53:39;98902.11;;;19.26;44.48
66801;BME280;53703;50.326;19.122;2023-05-07T02:56:33;98898.55;;;19.31;44.44
66801;BME280;53703;50.326;19.122;2023-05-07T02:59:27;98896.58;;;19.22;44.29
66801;BME280;53703;50.326;19.122;2023-05-07T03:02:21;98901.38;;;19.22;44.41
66801;BME280;53703;50.326;19.122;2023-05-07T03:05:15;98904.30;;;19.13;44.49
66801;BME280;53703;50.326;19.122;2023-05-07T03:08:09;98903.42;;;19.16;44.31
66801;BME280;53703;50.326;19.122;2023-05-07T03:11:03;98903.56;;;19.02;44.30
66801;BME280;53703;50.326;19.122;2023-05-07T03:13:57;98912.58;;;19.05;44.43
66801;BME280;53703;50.326;19.122;2023-05-07T03:16:52;98913.61;;;19.10;44.35
66801;BME280;53703;50.326;19.122;2023-05-07T03:19:46;98915.80;;;19.23;44.19
66801;BME280;53703;50.326;19.122;2023-05-07T03:22:40;98920.95;;;19.26;44.12
66801;BME280;53703;50.326;19.122;2023-05-07T03:25:34;98923.52;;;19.22;43.89
66801;BME280;53703;50.326;19.122;2023-05-07T03:28:28;98926.48;;;19.29;43.84
66801;BME280;53703;50.326;19.122;2023-05-07T03:31:22;98933.70;;;19.19;43.83
66801;BME280;53703;50.326;19.122;2023-05-07T03:34:16;98933.89;;;19.04;43.89
66801;BME280;53703;50.326;19.122;2023-05-07T03:37:14;98934.24;;;19.05;43.85
66801;BME280;53703;50.326;19.122;2023-05-07T03:40:10;98940.38;;;18.96;43.81
66801;BME280;53703;50.326;19.122;2023-05-07T03:43:05;98943.89;;;18.92;43.75
66801;BME280;53703;50.326;19.122;2023-05-07T03:45:59;98947.85;;;19.01;43.76
66801;BME280;53703;50.326;19.122;2023-05-07T03:48:53;98955.42;;;19.05;43.54
66801;BME280;53703;50.326;19.122;2023-05-07T03:51:47;98953.69;;;18.98;43.61
66801;BME280;53703;50.326;19.122;2023-05-07T03:54:41;98953.10;;;18.97;43.49
66801;BME280;53703;50.326;19.122;2023-05-07T03:57:35;98953.04;;;18.94;43.52
66801;BME280;53703;50.326;19.122;2023-05-07T04:00:28;98960.16;;;19.02;43.42
66801;BME280;53703;50.326;19.122;2023-05-07T04:03:25;98960.68;;;18.76;43.70
66801;BME280;53703;50.326;19.122;2023-05-07T04:06:20;98962.77;;;18.79;43.68
66801;BME280;53703;50.326;19.122;2023-05-07T04:09:14;98966.31;;;18.92;43.48
66801;BME280;53703;50.326;19.122;2023-05-07T04:12:08;98962.70;;;18.85;43.54
66801;BME280;53703;50.326;19.122;2023-05-07T04:15:03;98965.37;;;18.95;43.38
66801;BME280;53703;50.326;19.122;2023-05-07T04:17:57;98967.33;;;19.02;43.34
66801;BME280;53703;50.326;19.122;2023-05-07T04:20:51;98973.52;;;19.07;43.10
66801;BME280;53703;50.326;19.122;2023-05-07T04:23:46;98981.59;;;18.93;43.13
66801;BME280;53703;50.326;19.122;2023-05-07T04:26:40;98984.79;;;18.66;43.33
66801;BME280;53703;50.326;19.122;2023-05-07T04:29:34;98983.31;;;18.64;43.60
66801;BME280;53703;50.326;19.122;2023-05-07T04:32:28;98982.80;;;18.71;43.27
66801;BME280;53703;50.326;19.122;2023-05-07T04:35:22;98991.98;;;18.71;43.29
66801;BME280;53703;50.326;19.122;2023-05-07T04:38:16;98997.95;;;18.91;43.12
66801;BME280;53703;50.326;19.122;2023-05-07T04:41:14;98999.69;;;18.90;42.93
66801;BME280;53703;50.326;19.122;2023-05-07T04:44:09;99002.65;;;18.92;42.91
66801;BME280;53703;50.326;19.122;2023-05-07T04:47:04;99008.76;;;18.82;43.05
66801;BME280;53703;50.326;19.122;2023-05-07T04:49:58;99010.67;;;18.88;42.94
66801;BME280;53703;50.326;19.122;2023-05-07T04:52:52;99013.92;;;18.81;43.21
66801;BME280;53703;50.326;19.122;2023-05-07T04:55:47;99019.63;;;18.91;42.88
66801;BME280;53703;50.326;19.122;2023-05-07T04:58:41;99032.48;;;18.82;42.79
66801;BME280;53703;50.326;19.122;2023-05-07T05:01:35;99036.02;;;18.72;42.88
66801;BME280;53703;50.326;19.122;2023-05-07T05:04:29;99035.83;;;18.69;42.95
66801;BME280;53703;50.326;19.122;2023-05-07T05:07:23;99042.66;;;18.63;42.96
66801;BME280;53703;50.326;19.122;2023-05-07T05:10:17;99047.95;;;18.65;43.03
66801;BME280;53703;50.326;19.122;2023-05-07T05:13:14;99049.60;;;18.79;42.76
66801;BME280;53703;50.326;19.122;2023-05-07T05:16:09;99051.70;;;18.91;42.54
66801;BME280;53703;50.326;19.122;2023-05-07T05:19:04;99056.26;;;18.90;42.61
66801;BME280;53703;50.326;19.122;2023-05-07T05:21:58;99059.71;;;18.95;42.55
66801;BME280;53703;50.326;19.122;2023-05-07T05:24:53;99062.84;;;18.74;42.79
66801;BME280;53703;50.326;19.122;2023-05-07T05:27:47;99065.54;;;18.52;42.91
66801;BME280;53703;50.326;19.122;2023-05-07T05:30:42;99068.23;;;18.60;42.98
66801;BME280;53703;50.326;19.122;2023-05-07T05:33:36;99071.80;;;18.56;42.76
66801;BME280;53703;50.326;19.122;2023-05-07T05:36:30;99078.45;;;18.61;42.53
66801;BME280;53703;50.326;19.122;2023-05-07T05:39:24;99085.06;;;18.63;42.54
66801;BME280;53703;50.326;19.122;2023-05-07T05:42:19;99088.05;;;18.55;42.26
66801;BME280;53703;50.326;19.122;2023-05-07T05:45:13;99088.51;;;18.50;42.36
66801;BME280;53703;50.326;19.122;2023-05-07T05:48:08;99094.02;;;18.64;42.15
66801;BME280;53703;50.326;19.122;2023-05-07T05:51:02;99096.80;;;18.48;42.16
66801;BME280;53703;50.326;19.122;2023-05-07T05:53:56;99093.10;;;18.59;42.11
66801;BME280;53703;50.326;19.122;2023-05-07T05:56:50;99101.41;;;18.53;42.12
66801;BME280;53703;50.326;19.122;2023-05-07T05:59:45;99102.75;;;18.60;42.11
66801;BME280;53703;50.326;19.122;2023-05-07T06:02:40;99101.49;;;18.65;41.96
66801;BME280;53703;50.326;19.122;2023-05-07T06:05:35;99105.55;;;18.62;42.14
66801;BME280;53703;50.326;19.122;2023-05-07T06:08:31;99108.02;;;18.59;41.95
66801;BME280;53703;50.326;19.122;2023-05-07T06:11:25;99118.60;;;18.27;42.43
66801;BME280;53703;50.326;19.122;2023-05-07T06:14:18;99119.81;;;18.26;42.47
66801;BME280;53703;50.326;19.122;2023-05-07T06:17:12;99120.29;;;18.35;42.39
66801;BME280;53703;50.326;19.122;2023-05-07T06:20:09;99124.02;;;18.40;42.19
66801;BME280;53703;50.326;19.122;2023-05-07T06:23:04;99122.73;;;18.35;42.31
66801;BME280;53703;50.326;19.122;2023-05-07T06:25:58;99120.99;;;18.28;42.05
66801;BME280;53703;50.326;19.122;2023-05-07T06:28:51;99122.22;;;18.18;42.09
66801;BME280;53703;50.326;19.122;2023-05-07T06:31:46;99125.29;;;18.07;42.26
66801;BME280;53703;50.326;19.122;2023-05-07T06:34:40;99133.27;;;18.20;42.01
66801;BME280;53703;50.326;19.122;2023-05-07T06:37:34;99132.50;;;18.12;42.02
66801;BME280;53703;50.326;19.122;2023-05-07T06:40:30;99136.86;;;18.13;42.10
66801;BME280;53703;50.326;19.122;2023-05-07T06:43:24;99141.14;;;18.26;41.94
66801;BME280;53703;50.326;19.122;2023-05-07T06:46:18;99137.15;;;18.54;41.60
66801;BME280;53703;50.326;19.122;2023-05-07T06:49:13;99139.24;;;18.55;41.88
66801;BME280;53703;50.326;19.122;2023-05-07T06:52:07;99142.77;;;18.59;42.30
66801;BME280;53703;50.326;19.122;2023-05-07T06:55:02;99150.40;;;18.49;42.38
66801;BME280;53703;50.326;19.122;2023-05-07T06:57:56;99149.61;;;18.54;42.78
66801;BME280;53703;50.326;19.122;2023-05-07T07:00:53;99152.45;;;18.56;42.08
66801;BME280;53703;50.326;19.122;2023-05-07T07:03:30;99152.47;;;18.48;41.95
66801;BME280;53703;50.326;19.122;2023-05-07T07:06:24;99154.51;;;18.34;41.94
66801;BME280;53703;50.326;19.122;2023-05-07T07:09:18;99153.58;;;18.38;42.05
66801;BME280;53703;50.326;19.122;2023-05-07T07:12:15;99158.02;;;18.43;41.66
66801;BME280;53703;50.326;19.122;2023-05-07T07:15:11;99157.09;;;18.37;41.64
66801;BME280;53703;50.326;19.122;2023-05-07T07:18:05;99159.66;;;18.50;41.46
66801;BME280;53703;50.326;19.122;2023-05-07T07:20:59;99164.89;;;18.53;41.68
66801;BME280;53703;50.326;19.122;2023-05-07T07:24:14;99170.35;;;18.37;41.43
66801;BME280;53703;50.326;19.122;2023-05-07T07:27:17;99169.48;;;18.24;41.49
66801;BME280;53703;50.326;19.122;2023-05-07T07:30:43;99172.42;;;18.31;41.33
66801;BME280;53703;50.326;19.122;2023-05-07T07:33:48;99176.50;;;18.26;41.23
66801;BME280;53703;50.326;19.122;2023-05-07T07:36:44;99177.44;;;18.13;41.21
66801;BME280;53703;50.326;19.122;2023-05-07T07:39:38;99180.75;;;18.22;41.09
66801;BME280;53703;50.326;19.122;2023-05-07T07:42:32;99188.13;;;18.12;41.37
66801;BME280;53703;50.326;19.122;2023-05-07T07:45:26;99187.86;;;18.28;41.19
66801;BME280;53703;50.326;19.122;2023-05-07T07:48:20;99192.31;;;18.42;41.00
66801;BME280;53703;50.326;19.122;2023-05-07T07:51:14;99196.19;;;18.29;41.36
66801;BME280;53703;50.326;19.122;2023-05-07T07:54:09;99201.52;;;18.15;41.24
66801;BME280;53703;50.326;19.122;2023-05-07T07:57:03;99198.91;;;18.06;41.30
66801;BME280;53703;50.326;19.122;2023-05-07T07:59:58;99197.33;;;18.17;41.25
66801;BME280;53703;50.326;19.122;2023-05-07T08:02:52;99199.09;;;18.33;41.02
66801;BME280;53703;50.326;19.122;2023-05-07T08:05:46;99199.25;;;18.20;41.43
66801;BME280;53703;50.326;19.122;2023-05-07T08:08:42;99207.55;;;18.16;42.89
66801;BME280;53703;50.326;19.122;2023-05-07T08:11:36;99209.54;;;18.36;41.98
66801;BME280;53703;50.326;19.122;2023-05-07T08:14:30;99207.95;;;18.08;42.19
66801;BME280;53703;50.326;19.122;2023-05-07T08:17:24;99204.80;;;17.84;42.31
66801;BME280;53703;50.326;19.122;2023-05-07T08:20:18;99210.59;;;18.15;41.99
66801;BME280;53703;50.326;19.122;2023-05-07T08:23:12;99213.47;;;18.04;42.61
66801;BME280;53703;50.326;19.122;2023-05-07T08:26:07;99217.12;;;18.15;42.63
66801;BME280;53703;50.326;19.122;2023-05-07T08:29:01;99214.56;;;18.29;42.35
66801;BME280;53703;50.326;19.122;2023-05-07T08:31:54;99217.69;;;18.30;42.23
66801;BME280;53703;50.326;19.122;2023-05-07T08:34:49;99222.48;;;18.30;41.98
66801;BME280;53703;50.326;19.122;2023-05-07T08:37:43;99229.30;;;18.19;41.96
66801;BME280;53703;50.326;19.122;2023-05-07T08:40:40;99233.48;;;18.18;41.81
66801;BME280;53703;50.326;19.122;2023-05-07T08:43:37;99238.08;;;17.86;42.12
66801;BME280;53703;50.326;19.122;2023-05-07T08:46:33;99241.64;;;18.02;42.07
66801;BME280;53703;50.326;19.122;2023-05-07T08:49:28;99240.89;;;18.03;41.92
66801;BME280;53703;50.326;19.122;2023-05-07T08:52:22;99248.48;;;17.95;41.91
66801;BME280;53703;50.326;19.122;2023-05-07T08:55:16;99258.84;;;18.02;41.88
66801;BME280;53703;50.326;19.122;2023-05-07T08:58:10;99261.17;;;17.79;41.82
66801;BME280;53703;50.326;19.122;2023-05-07T09:01:08;99265.54;;;17.70;42.16
66801;BME280;53703;50.326;19.122;2023-05-07T09:04:03;99269.82;;;17.84;41.93
66801;BME280;53703;50.326;19.122;2023-05-07T09:06:58;99271.41;;;17.85;41.94
66801;BME280;53703;50.326;19.122;2023-05-07T09:09:57;99276.54;;;17.86;41.88
66801;BME280;53703;50.326;19.122;2023-05-07T09:12:52;99280.05;;;17.88;41.92
66801;BME280;53703;50.326;19.122;2023-05-07T09:15:46;99281.95;;;17.86;41.74
66801;BME280;53703;50.326;19.122;2023-05-07T09:18:43;99283.16;;;17.80;41.94
66801;BME280;53703;50.326;19.122;2023-05-07T09:21:37;99283.88;;;17.97;41.58
66801;BME280;53703;50.326;19.122;2023-05-07T09:24:32;99286.07;;;17.94;41.55
66801;BME280;53703;50.326;19.122;2023-05-07T09:27:30;99285.23;;;17.87;41.65
66801;BME280;53703;50.326;19.122;2023-05-07T09:30:24;99292.27;;;17.89;41.63
66801;BME280;53703;50.326;19.122;2023-05-07T09:33:20;99289.40;;;17.85;41.48
66801;BME280;53703;50.326;19.122;2023-05-07T09:36:14;99293.54;;;17.80;41.63
66801;BME280;53703;50.326;19.122;2023-05-07T09:39:08;99289.59;;;17.92;41.45
66801;BME280;53703;50.326;19.122;2023-05-07T09:42:03;99294.73;;;17.88;41.60
66801;BME280;53703;50.326;19.122;2023-05-07T09:44:57;99297.89;;;17.88;41.52
66801;BME280;53703;50.326;19.122;2023-05-07T09:47:55;99296.89;;;17.90;41.54
66801;BME280;53703;50.326;19.122;2023-05-07T09:50:53;99295.55;;;17.96;41.30
66801;BME280;53703;50.326;19.122;2023-05-07T09:53:51;99297.48;;;17.77;41.54
66801;BME280;53703;50.326;19.122;2023-05-07T09:56:46;99301.16;;;17.56;41.81
66801;BME280;53703;50.326;19.122;2023-05-07T09:59:42;99304.83;;;16.95;43.06
66801;BME280;53703;50.326;19.122;2023-05-07T10:02:37;99306.77;;;16.86;42.97
66801;BME280;53703;50.326;19.122;2023-05-07T10:05:38;99313.36;;;16.64;43.33
66801;BME280;53703;50.326;19.122;2023-05-07T10:08:33;99318.61;;;16.67;43.35
66801;BME280;53703;50.326;19.122;2023-05-07T10:11:29;99320.89;;;16.43;43.77
66801;BME280;53703;50.326;19.122;2023-05-07T10:14:24;99326.91;;;16.04;44.55
66801;BME280;53703;50.326;19.122;2023-05-07T10:17:19;99329.64;;;16.69;43.76
66801;BME280;53703;50.326;19.122;2023-05-07T10:20:14;99336.96;;;16.99;43.14
66801;BME280;53703;50.326;19.122;2023-05-07T10:23:09;99338.46;;;17.04;42.73
66801;BME280;53703;50.326;19.122;2023-05-07T10:26:07;99341.96;;;17.17;42.70
66801;BME280;53703;50.326;19.122;2023-05-07T10:29:05;99344.95;;;17.30;42.66
66801;BME280;53703;50.326;19.122;2023-05-07T10:32:14;99341.43;;;17.51;42.46
66801;BME280;53703;50.326;19.122;2023-05-07T10:35:17;99342.92;;;17.86;41.97
66801;BME280;53703;50.326;19.122;2023-05-07T10:38:13;99348.88;;;17.87;41.73
66801;BME280;53703;50.326;19.122;2023-05-07T10:41:07;99351.89;;;17.62;41.98
66801;BME280;53703;50.326;19.122;2023-05-07T10:44:01;99353.67;;;17.51;42.20
66801;BME280;53703;50.326;19.122;2023-05-07T10:47:08;99354.98;;;17.47;42.21
66801;BME280;53703;50.326;19.122;2023-05-07T10:50:23;99357.31;;;17.53;42.16
66801;BME280;53703;50.326;19.122;2023-05-07T10:53:27;99351.52;;;17.85;41.90
66801;BME280;53703;50.326;19.122;2023-05-07T10:56:30;99349.92;;;17.91;41.86
66801;BME280;53703;50.326;19.122;2023-05-07T11:03:13;99353.91;;;17.98;41.61
66801;BME280;53703;50.326;19.122;2023-05-07T11:06:15;99346.34;;;17.84;41.59
66801;BME280;53703;50.326;19.122;2023-05-07T11:09:09;99355.44;;;17.58;41.90
66801;BME280;53703;50.326;19.122;2023-05-07T11:12:06;99356.69;;;17.50;42.07
66801;BME280;53703;50.326;19.122;2023-05-07T11:15:00;99359.94;;;17.49;42.20
66801;BME280;53703;50.326;19.122;2023-05-07T11:17:59;99364.16;;;17.55;42.00
66801;BME280;53703;50.326;19.122;2023-05-07T11:21:02;99361.64;;;17.52;42.02
66801;BME280;53703;50.326;19.122;2023-05-07T11:24:03;99365.50;;;17.49;42.00
66801;BME280;53703;50.326;19.122;2023-05-07T11:26:58;99369.86;;;17.41;41.94
66801;BME280;53703;50.326;19.122;2023-05-07T11:29:52;99373.89;;;17.54;41.85
66801;BME280;53703;50.326;19.122;2023-05-07T11:32:48;99373.39;;;17.61;41.78
66801;BME280;53703;50.326;19.122;2023-05-07T11:35:43;99375.56;;;17.32;41.97
66801;BME280;53703;50.326;19.122;2023-05-07T11:38:39;99379.55;;;17.41;41.96
66801;BME280;53703;50.326;19.122;2023-05-07T11:41:39;99383.89;;;17.54;41.64
66801;BME280;53703;50.326;19.122;2023-05-07T11:44:47;99385.58;;;17.56;42.13
66801;BME280;53703;50.326;19.122;2023-05-07T11:47:42;99386.81;;;17.54;42.33
66801;BME280;53703;50.326;19.122;2023-05-07T11:50:37;99387.29;;;17.40;43.00
66801;BME280;53703;50.326;19.122;2023-05-07T11:53:44;99386.17;;;17.63;42.66
66801;BME280;53703;50.326;19.122;2023-05-07T11:56:38;99386.73;;;17.56;42.81
66801;BME280;53703;50.326;19.122;2023-05-07T11:59:53;99383.02;;;17.95;42.44
66801;BME280;53703;50.326;19.122;2023-05-07T12:02:48;99389.10;;;18.03;42.42
66801;BME280;53703;50.326;19.122;2023-05-07T12:05:42;99385.58;;;18.06;42.52
66801;BME280;53703;50.326;19.122;2023-05-07T12:08:40;99381.83;;;18.20;42.21
66801;BME280;53703;50.326;19.122;2023-05-07T12:11:34;99385.88;;;18.21;42.20
66801;BME280;53703;50.326;19.122;2023-05-07T12:14:31;99386.41;;;18.13;42.12
66801;BME280;53703;50.326;19.122;2023-05-07T12:17:25;99389.38;;;18.08;42.33
66801;BME280;53703;50.326;19.122;2023-05-07T12:20:19;99392.39;;;17.88;42.61
66801;BME280;53703;50.326;19.122;2023-05-07T12:23:14;99393.02;;;17.95;42.22
66801;BME280;53703;50.326;19.122;2023-05-07T12:26:08;99401.80;;;17.79;41.96
66801;BME280;53703;50.326;19.122;2023-05-07T12:29:03;99402.66;;;17.58;41.92
66801;BME280;53703;50.326;19.122;2023-05-07T12:31:58;99405.02;;;17.71;41.81
66801;BME280;53703;50.326;19.122;2023-05-07T12:34:54;99405.19;;;17.56;41.71
66801;BME280;53703;50.326;19.122;2023-05-07T12:37:55;99405.38;;;17.53;41.74
66801;BME280;53703;50.326;19.122;2023-05-07T12:40:53;99409.27;;;17.44;41.48
66801;BME280;53703;50.326;19.122;2023-05-07T12:43:48;99410.57;;;17.40;41.62
66801;BME280;53703;50.326;19.122;2023-05-07T12:46:43;99407.79;;;17.36;41.68
66801;BME280;53703;50.326;19.122;2023-05-07T12:49:38;99411.66;;;17.48;41.64
66801;BME280;53703;50.326;19.122;2023-05-07T12:52:32;99417.71;;;17.39;41.46
66801;BME280;53703;50.326;19.122;2023-05-07T12:55:27;99416.07;;;17.52;41.28
66801;BME280;53703;50.326;19.122;2023-05-07T12:58:29;99412.12;;;17.50;41.35
66801;BME280;53703;50.326;19.122;2023-05-07T13:01:28;99413.11;;;17.44;41.31
66801;BME280;53703;50.326;19.122;2023-05-07T13:04:38;99417.41;;;17.54;41.62
66801;BME280;53703;50.326;19.122;2023-05-07T13:07:32;99422.78;;;17.92;41.27
66801;BME280;53703;50.326;19.122;2023-05-07T13:10:27;99421.05;;;17.96;41.07
66801;BME280;53703;50.326;19.122;2023-05-07T13:13:21;99426.30;;;17.89;41.19
66801;BME280;53703;50.326;19.122;2023-05-07T13:16:15;99427.16;;;17.76;41.17
66801;BME280;53703;50.326;19.122;2023-05-07T13:19:10;99426.31;;;17.91;41.08
66801;BME280;53703;50.326;19.122;2023-05-07T13:22:15;99425.27;;;17.77;41.27
66801;BME280;53703;50.326;19.122;2023-05-07T13:25:10;99423.80;;;17.67;41.11
66801;BME280;53703;50.326;19.122;2023-05-07T13:28:05;99426.11;;;17.79;41.00
66801;BME280;53703;50.326;19.122;2023-05-07T13:31:19;99423.69;;;17.74;40.99
66801;BME280;53703;50.326;19.122;2023-05-07T13:34:14;99425.02;;;17.70;40.90
66801;BME280;53703;50.326;19.122;2023-05-07T13:37:08;99429.39;;;17.65;41.06
66801;BME280;53703;50.326;19.122;2023-05-07T13:40:05;99433.89;;;17.71;40.88
66801;BME280;53703;50.326;19.122;2023-05-07T13:43:00;99436.91;;;17.73;40.89
66801;BME280;53703;50.326;19.122;2023-05-07T13:45:55;99436.16;;;17.57;40.89
66801;BME280;53703;50.326;19.122;2023-05-07T13:48:49;99437.95;;;17.73;40.83
66801;BME280;53703;50.326;19.122;2023-05-07T13:51:43;99439.23;;;17.61;40.87
66801;BME280;53703;50.326;19.122;2023-05-07T13:54:39;99436.30;;;17.53;41.05
66801;BME280;53703;50.326;19.122;2023-05-07T13:57:33;99440.85;;;17.47;41.12
66801;BME280;53703;50.326;19.122;2023-05-07T14:00:28;99436.80;;;17.39;41.20
66801;BME280;53703;50.326;19.122;2023-05-07T14:03:22;99436.95;;;17.34;41.22
66801;BME280;53703;50.326;19.122;2023-05-07T14:06:16;99436.38;;;17.44;41.16
66801;BME280;53703;50.326;19.122;2023-05-07T14:09:10;99440.68;;;17.49;41.12
66801;BME280;53703;50.326;19.122;2023-05-07T14:12:08;99439.73;;;17.33;41.14
66801;BME280;53703;50.326;19.122;2023-05-07T14:15:09;99442.29;;;17.57;40.89
66801;BME280;53703;50.326;19.122;2023-05-07T14:18:03;99444.41;;;17.35;41.05
66801;BME280;53703;50.326;19.122;2023-05-07T14:20:57;99448.48;;;17.58;41.09
66801;BME280;53703;50.326;19.122;2023-05-07T14:23:51;99449.29;;;17.86;40.85
66801;BME280;53703;50.326;19.122;2023-05-07T14:26:45;99456.54;;;17.82;40.79
66801;BME280;53703;50.326;19.122;2023-05-07T14:29:39;99457.81;;;17.67;40.90
66801;BME280;53703;50.326;19.122;2023-05-07T14:32:33;99457.88;;;17.75;40.59
66801;BME280;53703;50.326;19.122;2023-05-07T14:35:27;99457.40;;;17.82;40.44
66801;BME280;53703;50.326;19.122;2023-05-07T14:38:21;99460.96;;;17.79;40.76
66801;BME280;53703;50.326;19.122;2023-05-07T14:41:15;99462.42;;;17.52;40.61
66801;BME280;53703;50.326;19.122;2023-05-07T14:44:09;99467.39;;;17.52;40.54
66801;BME280;53703;50.326;19.122;2023-05-07T14:47:03;99473.70;;;17.43;40.63
66801;BME280;53703;50.326;19.122;2023-05-07T14:49:57;99477.14;;;17.13;41.23
66801;BME280;53703;50.326;19.122;2023-05-07T14:53:15;99475.66;;;17.14;41.07
66801;BME280;53703;50.326;19.122;2023-05-07T14:56:09;99485.07;;;17.02;41.19
66801;BME280;53703;50.326;19.122;2023-05-07T14:59:03;99489.57;;;17.02;41.32
66801;BME280;53703;50.326;19.122;2023-05-07T15:01:57;99492.98;;;16.81;41.36
66801;BME280;53703;50.326;19.122;2023-05-07T15:04:51;99491.89;;;16.94;41.22
66801;BME280;53703;50.326;19.122;2023-05-07T15:07:45;99494.27;;;16.90;41.25
66801;BME280;53703;50.326;19.122;2023-05-07T15:10:39;99490.38;;;17.18;41.34
66801;BME280;53703;50.326;19.122;2023-05-07T15:13:33;99489.48;;;17.47;40.79
66801;BME280;53703;50.326;19.122;2023-05-07T15:16:28;99485.27;;;17.49;40.66
66801;BME280;53703;50.326;19.122;2023-05-07T15:19:22;99488.21;;;17.54;40.54
66801;BME280;53703;50.326;19.122;2023-05-07T15:22:21;99492.97;;;17.60;40.35